Time;durP1;ratioP1;P1;durP2;ratioP2;P2;SDS_P1;SDS_P2;PMS_P1;PMS_P2;Temp;Humidity;BMP_temperature;BMP_pressure;BME280_temperature;BME280_humidity;BME280_pressure;Samples;Min_cycle;Max_cycle;Signal;HPM_P1;HPM_P2
2022/09/16 00:01:21;;;;;;;1.92;1.55;;;;;;;16.73;100.00;99511.56;5570376;32;34592;-73
2022/09/16 00:04:24;;;;;;;1.77;1.48;;;;;;;16.75;100.00;99504.13;5556943;32;34276;-73
2022/09/16 00:07:29;;;;;;;4.20;1.70;;;;;;;16.70;100.00;99499.41;5570508;32;34383;-73
2022/09/16 00:10:32;;;;;;;1.90;1.35;;;;;;;16.76;100.00;99495.84;5570657;32;33971;-73
2022/09/16 00:13:34;;;;;;;4.20;1.35;;;;;;;16.70;100.00;99498.63;5570695;32;34422;-73
2022/09/16 00:16:37;;;;;;;2.45;1.70;;;;;;;16.63;100.00;99505.94;5570340;32;34072;-73
2022/09/16 00:19:40;;;;;;;2.17;1.90;;;;;;;16.58;100.00;99503.94;5570265;32;34590;-72
2022/09/16 00:22:43;;;;;;;2.20;1.50;;;;;;;16.47;100.00;99516.19;5570027;32;33850;-72
2022/09/16 00:25:54;;;;;;;4.60;2.05;;;;;;;16.41;100.00;99517.09;5570382;32;34160;-71
2022/09/16 00:28:57;;;;;;;1.95;1.75;;;;;;;16.35;100.00;99509.19;5569814;32;34902;-71
2022/09/16 00:32:00;;;;;;;3.10;1.90;;;;;;;16.28;100.00;99524.50;5570293;32;35157;-72
2022/09/16 00:35:04;;;;;;;2.15;1.77;;;;;;;16.24;100.00;99516.09;5570312;32;34016;-75
2022/09/16 00:38:06;;;;;;;2.97;2.12;;;;;;;16.27;100.00;99521.00;5570147;32;34285;-71
2022/09/16 00:41:17;;;;;;;4.43;2.00;;;;;;;16.24;100.00;99526.81;5556409;32;33938;-72
2022/09/16 00:44:53;;;;;;;4.50;2.50;;;;;;;16.14;100.00;99529.19;5570043;32;33997;-71
2022/09/16 00:48:19;;;;;;;4.03;2.28;;;;;;;16.11;100.00;99528.84;5569943;32;34371;-72
2022/09/16 00:51:24;;;;;;;3.03;2.17;;;;;;;16.13;100.00;99529.41;5556820;32;33988;-70
2022/09/16 00:54:29;;;;;;;2.10;1.90;;;;;;;16.07;100.00;99534.63;5570298;32;34347;-72
2022/09/16 00:57:31;;;;;;;3.90;2.10;;;;;;;16.13;100.00;99532.91;5569779;32;34124;-70
2022/09/16 01:00:35;;;;;;;2.97;2.03;;;;;;;16.09;100.00;99534.41;5569788;32;35297;-72
2022/09/16 01:03:48;;;;;;;2.87;2.10;;;;;;;16.00;100.00;99530.41;5570190;32;33967;-71
2022/09/16 01:06:51;;;;;;;4.00;1.90;;;;;;;15.95;100.00;99532.91;5556507;32;34496;-71
2022/09/16 01:09:54;;;;;;;4.20;2.17;;;;;;;15.82;100.00;99541.09;5570077;32;33997;-71
2022/09/16 01:13:05;;;;;;;3.75;1.80;;;;;;;15.82;100.00;99551.78;5570187;32;34123;-70
2022/09/16 01:16:28;;;;;;;2.17;1.80;;;;;;;15.77;100.00;99547.09;5556104;32;32449;-70
2022/09/16 01:20:08;;;;;;;1.83;1.73;;;;;;;15.70;100.00;99545.53;5569700;32;33988;-71
2022/09/16 01:23:33;;;;;;;2.22;2.03;;;;;;;15.61;100.00;99547.69;5569497;32;34332;-70
2022/09/16 01:27:24;;;;;;;2.85;2.15;;;;;;;15.59;100.00;99545.22;5569472;32;34317;-70
2022/09/16 01:30:51;;;;;;;2.62;2.30;;;;;;;15.57;100.00;99539.28;5555657;32;33371;-70
2022/09/16 01:34:10;;;;;;;3.78;2.20;;;;;;;15.54;100.00;99550.41;5569534;32;33949;-71
2022/09/16 01:37:15;;;;;;;2.58;2.33;;;;;;;15.55;100.00;99556.56;5569669;32;34754;-70
2022/09/16 01:40:50;;;;;;;3.00;2.70;;;;;;;15.42;100.00;99557.47;5568470;32;33957;-70
2022/09/16 01:44:07;;;;;;;2.75;2.55;;;;;;;15.34;100.00;99557.78;5554477;32;34645;-70
2022/09/16 01:47:26;;;;;;;3.08;2.35;;;;;;;15.35;100.00;99559.37;5569174;32;34155;-70
2022/09/16 01:50:36;;;;;;;2.85;2.55;;;;;;;15.36;100.00;99549.50;5569188;32;34512;-70
2022/09/16 01:54:02;;;;;;;3.50;2.87;;;;;;;15.35;100.00;99547.88;5569389;32;34676;-70
2022/09/16 01:57:15;;;;;;;2.50;2.30;;;;;;;15.26;100.00;99543.84;5569354;32;33868;-70
2022/09/16 02:00:19;;;;;;;3.35;2.78;;;;;;;15.30;100.00;99542.38;5568956;32;33971;-70
2022/09/16 02:03:27;;;;;;;3.10;2.80;;;;;;;15.21;100.00;99536.47;5568882;32;35437;-70
2022/09/16 02:06:32;;;;;;;5.03;2.92;;;;;;;15.30;100.00;99529.81;5568941;32;33933;-71
2022/09/16 02:09:41;;;;;;;3.65;2.90;;;;;;;15.25;100.00;99526.97;5568708;32;34007;-71
2022/09/16 02:12:47;;;;;;;5.50;3.22;;;;;;;15.29;100.00;99541.56;5568936;32;34669;-69
2022/09/16 02:15:52;;;;;;;3.28;2.97;;;;;;;15.34;100.00;99544.41;5569023;32;34717;-70
2022/09/16 02:19:01;;;;;;;3.17;2.87;;;;;;;15.33;100.00;99545.44;5568517;32;34050;-70
2022/09/16 02:22:10;;;;;;;4.05;3.22;;;;;;;15.34;100.00;99551.59;5568729;32;34476;-70
2022/09/16 02:25:17;;;;;;;6.97;3.22;;;;;;;15.33;100.00;99569.50;5568520;32;34608;-70
2022/09/16 02:28:26;;;;;;;4.35;3.80;;;;;;;15.37;100.00;99560.00;5568214;32;34732;-70
2022/09/16 02:31:33;;;;;;;5.47;3.78;;;;;;;15.28;100.00;99577.34;5568659;32;35293;-69
2022/09/16 02:34:43;;;;;;;5.72;3.40;;;;;;;15.27;100.00;99575.69;5555144;32;34324;-70
2022/09/16 02:37:53;;;;;;;4.37;3.97;;;;;;;15.23;100.00;99564.63;5554218;32;34070;-72
2022/09/16 02:40:58;;;;;;;;;;;;;;;15.16;100.00;99560.34;5568837;32;34591;-69
2022/09/16 02:44:03;;;;;;;7.30;5.40;;;;;;;15.12;100.00;99578.69;5554382;32;33359;-69
2022/09/16 02:47:11;;;;;;;5.85;5.25;;;;;;;15.10;100.00;99580.75;5554354;32;34614;-69
2022/09/16 02:50:21;;;;;;;5.50;4.93;;;;;;;15.08;100.00;99582.81;5568445;32;34556;-70
2022/09/16 02:53:42;;;;;;;7.90;6.78;;;;;;;15.09;100.00;99592.47;5544702;32;32674;-69
2022/09/16 02:56:45;;;;;;;7.40;6.12;;;;;;;15.15;100.00;99601.50;5571010;32;33983;-69
2022/09/16 02:59:48;;;;;;;7.40;6.60;;;;;;;15.16;100.00;99597.75;5570879;32;34013;-69
2022/09/16 03:02:53;;;;;;;7.80;6.60;;;;;;;15.12;100.00;99601.91;5570706;32;34673;-69
2022/09/16 03:06:07;;;;;;;9.68;7.00;;;;;;;15.18;100.00;99609.06;5570991;32;34242;-68
2022/09/16 03:09:12;;;;;;;10.38;6.78;;;;;;;15.23;100.00;99607.38;5570763;32;33947;-72
2022/09/16 03:12:37;;;;;;;7.90;6.70;;;;;;;15.18;100.00;99604.53;5570830;32;34626;-69
2022/09/16 03:15:58;;;;;;;8.82;7.07;;;;;;;15.15;100.00;99610.28;5570768;32;34419;-69
2022/09/16 03:19:20;;;;;;;7.32;6.62;;;;;;;15.20;100.00;99620.37;5570867;32;34440;-69
2022/09/16 03:22:50;;;;;;;9.65;7.40;;;;;;;15.15;100.00;99596.16;5557263;32;34013;-69
2022/09/16 03:26:01;;;;;;;8.40;7.28;;;;;;;15.12;100.00;99596.56;5570943;32;34731;-69
2022/09/16 03:29:26;;;;;;;9.40;7.60;;;;;;;15.12;100.00;99593.88;5570502;32;34263;-71
2022/09/16 03:32:34;;;;;;;8.38;6.78;;;;;;;15.06;100.00;99590.22;5570613;32;33867;-69
2022/09/16 03:35:44;;;;;;;9.57;7.95;;;;;;;15.06;100.00;99595.56;5570514;32;35146;-68
2022/09/16 03:38:48;;;;;;;10.38;7.93;;;;;;;15.05;100.00;99593.12;5570529;32;34567;-70
2022/09/16 03:41:51;;;;;;;8.52;7.35;;;;;;;14.99;100.00;99597.47;5570456;32;33463;-71
2022/09/16 03:44:54;;;;;;;10.88;8.30;;;;;;;14.96;100.00;99613.91;5556796;32;33889;-70
2022/09/16 03:47:57;;;;;;;10.68;7.62;;;;;;;14.98;100.00;99609.19;5570442;32;34134;-69
2022/09/16 03:50:59;;;;;;;8.40;7.28;;;;;;;14.88;100.00;99611.50;5570518;32;35279;-71
2022/09/16 03:54:02;;;;;;;10.85;7.60;;;;;;;14.90;100.00;99616.66;5570506;32;33957;-70
2022/09/16 03:57:05;;;;;;;9.05;8.10;;;;;;;14.83;100.00;99622.00;5570429;32;34800;-70
2022/09/16 04:00:09;;;;;;;11.63;8.20;;;;;;;14.86;100.00;99623.44;5570441;32;34566;-69
2022/09/16 04:03:13;;;;;;;11.18;8.68;;;;;;;14.87;100.00;99625.06;5569708;32;34619;-69
2022/09/16 04:06:16;;;;;;;12.98;7.95;;;;;;;14.84;100.00;99612.16;5564246;32;198907;-69
2022/09/16 04:09:18;;;;;;;9.95;8.18;;;;;;;14.78;100.00;99619.97;5570224;32;34405;-70
2022/09/16 04:12:21;;;;;;;9.55;8.20;;;;;;;14.75;100.00;99627.59;5556317;32;32813;-69
2022/09/16 04:15:23;;;;;;;9.30;8.13;;;;;;;14.73;100.00;99630.47;5570316;32;33994;-70
2022/09/16 04:18:26;;;;;;;10.55;8.60;;;;;;;14.73;100.00;99629.66;5570304;32;34624;-69
2022/09/16 04:21:29;;;;;;;12.23;8.75;;;;;;;14.76;100.00;99627.37;5556532;32;33400;-69
2022/09/16 04:24:31;;;;;;;12.25;8.88;;;;;;;14.77;100.00;99628.19;5556471;32;33962;-69
2022/09/16 04:27:34;;;;;;;9.52;7.80;;;;;;;14.73;100.00;99637.66;5569875;32;33974;-69
2022/09/16 04:30:37;;;;;;;10.05;8.75;;;;;;;14.70;100.00;99649.59;5569940;32;34709;-70
2022/09/16 04:33:40;;;;;;;11.88;9.25;;;;;;;14.70;100.00;99651.44;5569990;32;34650;-69
2022/09/16 04:36:43;;;;;;;14.65;9.32;;;;;;;14.70;100.00;99657.63;5570012;32;34697;-69
2022/09/16 04:39:46;;;;;;;11.90;9.43;;;;;;;14.78;100.00;99648.53;5569984;32;34106;-70
2022/09/16 04:42:50;;;;;;;11.57;9.50;;;;;;;14.77;100.00;99636.19;5569905;32;33994;-69
2022/09/16 04:45:53;;;;;;;11.82;9.52;;;;;;;14.76;100.00;99634.59;5569821;32;34222;-70
2022/09/16 04:48:56;;;;;;;12.45;9.50;;;;;;;14.71;100.00;99629.88;5570000;32;35303;-69
2022/09/16 04:51:59;;;;;;;13.27;9.93;;;;;;;14.69;100.00;99634.59;5556388;32;32386;-70
2022/09/16 04:55:02;;;;;;;12.55;9.30;;;;;;;14.71;100.00;99639.75;5556249;32;33028;-69
2022/09/16 04:58:04;;;;;;;12.40;10.32;;;;;;;14.72;100.00;99630.69;5569743;32;33968;-70
2022/09/16 05:01:16;;;;;;;11.68;9.68;;;;;;;14.78;100.00;99649.34;5569882;32;34031;-69
2022/09/16 05:04:19;;;;;;;12.52;9.40;;;;;;;14.94;100.00;99644.56;5569598;32;34144;-70
2022/09/16 05:07:22;;;;;;;13.73;9.68;;;;;;;14.82;100.00;99644.41;5569750;32;34629;-70
2022/09/16 05:10:27;;;;;;;11.27;9.02;;;;;;;14.87;100.00;99646.44;5569508;32;34935;-69
2022/09/16 05:13:30;;;;;;;12.80;9.10;;;;;;;15.11;100.00;99651.84;5555996;32;33331;-70
2022/09/16 05:16:33;;;;;;;12.48;9.35;;;;;;;15.04;100.00;99647.59;5554089;32;33360;-69
2022/09/16 05:19:35;;;;;;;11.73;8.98;;;;;;;15.08;100.00;99657.63;5569535;32;34803;-69
2022/09/16 05:22:38;;;;;;;11.27;9.40;;;;;;;15.11;100.00;99656.38;5569237;32;33840;-70
2022/09/16 05:25:41;;;;;;;10.73;9.30;;;;;;;15.13;100.00;99657.81;5569484;32;33870;-70
2022/09/16 05:28:43;;;;;;;11.40;9.10;;;;;;;15.10;100.00;99660.88;5555554;32;32541;-69
2022/09/16 05:31:47;;;;;;;14.82;9.55;;;;;;;15.22;100.00;99647.66;5569439;32;34000;-68
2022/09/16 05:34:50;;;;;;;12.18;9.20;;;;;;;15.20;100.00;99655.09;5555219;32;32587;-69
2022/09/16 05:37:52;;;;;;;11.90;9.05;;;;;;;15.10;100.00;99670.78;5569171;32;34657;-70
2022/09/16 05:40:59;;;;;;;12.55;9.68;;;;;;;15.10;100.00;99679.59;5568850;32;34284;-70
2022/09/16 05:44:02;;;;;;;14.30;9.73;;;;;;;15.11;100.00;99675.06;5568259;32;34052;-70
2022/09/16 05:47:05;;;;;;;12.02;8.88;;;;;;;15.24;100.00;99653.62;5568602;32;34663;-70
2022/09/16 05:50:08;;;;;;;11.77;9.43;;;;;;;15.25;100.00;99659.81;5555049;32;33606;-71
2022/09/16 05:53:11;;;;;;;11.52;9.27;;;;;;;15.26;100.00;99666.75;5568864;32;33988;-71
2022/09/16 05:56:18;;;;;;;11.20;8.35;;;;;;;15.25;100.00;99667.81;5554652;32;34044;-71
2022/09/16 05:59:22;;;;;;;13.52;8.38;;;;;;;15.26;100.00;99670.25;5568549;32;34348;-69
2022/09/16 06:02:25;;;;;;;11.10;8.30;;;;;;;15.32;100.00;99658.72;5568398;32;33489;-70
2022/09/16 06:05:31;;;;;;;11.05;7.62;;;;;;;15.42;100.00;99658.22;5568623;32;33981;-68
2022/09/16 06:08:35;;;;;;;9.68;8.05;;;;;;;15.71;100.00;99660.31;5568415;32;33941;-69
2022/09/16 06:11:44;;;;;;;13.82;8.25;;;;;;;15.67;100.00;99659.09;5554609;32;32647;-69
2022/09/16 06:14:47;;;;;;;9.15;7.30;;;;;;;15.71;100.00;99665.66;5554600;32;32651;-68
2022/09/16 06:17:49;;;;;;;11.23;7.32;;;;;;;15.64;100.00;99663.03;5554725;32;32535;-70
2022/09/16 06:20:54;;;;;;;12.90;7.43;;;;;;;15.86;100.00;99663.47;5568081;32;34005;-68
2022/09/16 06:23:57;;;;;;;10.45;7.60;;;;;;;15.75;100.00;99663.34;5567945;32;33997;-68
2022/09/16 06:27:00;;;;;;;13.45;8.23;;;;;;;15.89;100.00;99671.03;5555541;32;33170;-68
2022/09/16 06:30:03;;;;;;;11.30;7.95;;;;;;;15.96;100.00;99671.81;5556430;32;32521;-69
2022/09/16 06:33:08;;;;;;;13.45;7.68;;;;;;;16.17;100.00;99670.56;5556200;32;32853;-69
2022/09/16 06:36:13;;;;;;;13.13;7.32;;;;;;;16.18;100.00;99674.06;5555720;32;33671;-69
2022/09/16 06:39:16;;;;;;;9.73;7.25;;;;;;;16.04;100.00;99668.03;5556893;32;32727;-69
2022/09/16 06:42:19;;;;;;;10.93;7.37;;;;;;;15.99;100.00;99649.97;5570761;32;34769;-68
2022/09/16 06:45:21;;;;;;;9.45;6.93;;;;;;;16.28;100.00;99652.97;5570904;32;34101;-69
2022/09/16 06:48:26;;;;;;;10.00;7.15;;;;;;;16.45;100.00;99662.88;5557219;32;33920;-70
2022/09/16 06:51:30;;;;;;;9.70;6.95;;;;;;;16.27;100.00;99667.38;5556737;32;32614;-69
2022/09/16 06:54:33;;;;;;;10.30;6.87;;;;;;;16.14;100.00;99656.81;5570237;32;35460;-68
2022/09/16 06:57:35;;;;;;;14.23;6.68;;;;;;;16.62;100.00;99656.94;5570595;32;34004;-68
2022/09/16 07:00:38;;;;;;;7.57;6.25;;;;;;;16.52;100.00;99660.09;5570844;32;33924;-69
2022/09/16 07:03:44;;;;;;;9.38;6.28;;;;;;;16.82;100.00;99660.19;5570668;32;34664;-68
2022/09/16 07:06:49;;;;;;;10.52;6.22;;;;;;;16.37;100.00;99657.81;5570543;32;33869;-68
2022/09/16 07:10:11;;;;;;;10.00;5.70;;;;;;;16.43;100.00;99656.91;5556707;32;33338;-68
2022/09/16 07:13:14;;;;;;;8.93;5.82;;;;;;;16.71;100.00;99661.75;5556416;32;34448;-69
2022/09/16 07:16:20;;;;;;;13.00;6.43;;;;;;;16.64;99.01;99671.75;5557106;32;33936;-69
2022/09/16 07:19:24;;;;;;;10.68;5.65;;;;;;;16.97;100.00;99676.69;5570507;32;34579;-69
2022/09/16 07:22:30;;;;;;;7.95;5.12;;;;;;;17.32;95.15;99672.28;5570401;32;33991;-70
2022/09/16 07:25:32;;;;;;;7.75;5.07;;;;;;;17.44;91.80;99676.84;5556455;32;33196;-70
2022/09/16 07:28:38;;;;;;;7.28;5.18;;;;;;;17.84;92.30;99687.81;5570344;32;34064;-69
2022/09/16 07:31:41;;;;;;;7.68;5.15;;;;;;;17.95;90.29;99695.87;5556744;32;32359;-69
2022/09/16 07:34:43;;;;;;;6.87;4.65;;;;;;;17.47;93.08;99696.00;5570606;32;34016;-69
2022/09/16 07:37:46;;;;;;;8.88;4.47;;;;;;;18.02;92.40;99695.75;5555934;32;32470;-71
2022/09/16 07:40:49;;;;;;;10.85;4.53;;;;;;;18.30;85.16;99690.50;5570497;32;33903;-71
2022/09/16 07:43:53;;;;;;;7.68;3.72;;;;;;;17.73;87.76;99694.78;5556446;32;32813;-70
2022/09/16 07:46:56;;;;;;;5.60;4.03;;;;;;;18.27;85.49;99695.53;5570387;32;33927;-69
2022/09/16 07:49:59;;;;;;;7.70;4.18;;;;;;;17.81;89.91;99710.56;5556355;32;32875;-72
2022/09/16 07:53:02;;;;;;;8.68;4.20;;;;;;;17.70;88.50;99708.69;5556719;32;34082;-68
2022/09/16 07:56:11;;;;;;;7.97;4.30;;;;;;;17.66;91.12;99712.88;5570299;32;34599;-70
2022/09/16 07:59:16;;;;;;;7.35;4.12;;;;;;;18.02;88.45;99709.19;5556312;32;34014;-68
2022/09/16 08:02:20;;;;;;;14.55;4.05;;;;;;;18.05;87.85;99716.78;5556331;32;32460;-69
2022/09/16 08:05:23;;;;;;;7.95;3.97;;;;;;;18.42;87.72;99720.88;5555920;32;32614;-67
2022/09/16 08:08:26;;;;;;;7.93;4.12;;;;;;;18.08;86.53;99727.88;5556581;32;33210;-67
2022/09/16 08:11:30;;;;;;;7.40;4.40;;;;;;;18.31;87.54;99729.72;5570485;32;34079;-68
2022/09/16 08:14:33;;;;;;;9.88;4.25;;;;;;;18.06;88.21;99723.75;5556023;32;33509;-68
2022/09/16 08:17:35;;;;;;;9.35;4.32;;;;;;;18.22;87.09;99731.97;5570337;32;34455;-70
2022/09/16 08:20:38;;;;;;;9.85;4.70;;;;;;;18.33;84.66;99727.66;5556448;32;33921;-68
2022/09/16 08:23:41;;;;;;;9.30;4.37;;;;;;;17.54;86.58;99728.06;5555897;32;32334;-70
2022/09/16 08:26:44;;;;;;;7.60;4.70;;;;;;;17.50;88.92;99724.22;5555910;31;32715;-67
2022/09/16 08:29:47;;;;;;;8.27;4.05;;;;;;;17.93;89.23;99735.53;5555922;32;33190;-67
2022/09/16 08:32:57;;;;;;;11.40;3.90;;;;;;;17.85;87.31;99727.84;5569519;32;33958;-70
2022/09/16 08:36:01;;;;;;;7.62;3.97;;;;;;;17.95;84.68;99727.28;5570049;32;34555;-68
2022/09/16 08:39:03;;;;;;;6.60;3.67;;;;;;;17.47;86.05;99722.00;5570221;32;34074;-70
2022/09/16 08:42:29;;;;;;;9.13;3.87;;;;;;;17.46;83.70;99720.34;5556216;32;33722;-68
2022/09/16 08:45:57;;;;;;;8.80;3.70;;;;;;;17.45;84.74;99727.56;5569692;32;34827;-67
2022/09/16 08:49:34;;;;;;;5.85;3.60;;;;;;;17.26;86.70;99717.94;5555946;32;34737;-70
2022/09/16 08:52:39;;;;;;;8.63;3.40;;;;;;;17.03;86.59;99720.53;5555883;32;32421;-68
2022/09/16 08:55:47;;;;;;;10.50;3.90;;;;;;;17.15;85.31;99716.03;5570036;32;33887;-69
2022/09/16 08:58:56;;;;;;;6.25;3.50;;;;;;;17.01;86.23;99720.75;5555776;32;33937;-68
2022/09/16 09:02:37;;;;;;;7.20;3.70;;;;;;;16.96;88.62;99723.28;5556061;32;33917;-68
2022/09/16 09:05:55;;;;;;;8.13;3.70;;;;;;;17.05;86.29;99729.16;5555908;32;32336;-69
2022/09/16 09:09:29;;;;;;;5.75;3.55;;;;;;;17.07;86.70;99738.62;5555923;32;35219;-68
2022/09/16 09:12:38;;;;;;;5.70;3.72;;;;;;;17.15;85.75;99738.28;5543060;32;33080;-68
2022/09/16 09:15:47;;;;;;;4.80;3.25;;;;;;;17.42;83.50;99741.47;5569584;32;34558;-68
2022/09/16 09:19:07;;;;;;;6.78;3.08;;;;;;;17.34;83.16;99731.03;5569214;32;34174;-68
2022/09/16 09:22:56;;;;;;;9.15;3.20;;;;;;;17.47;84.11;99717.47;5555652;32;32587;-68
2022/09/16 09:26:21;;;;;;;6.80;3.40;;;;;;;17.31;83.44;99720.78;5569139;31;34309;-69
2022/09/16 09:29:59;;;;;;;5.40;3.08;;;;;;;17.65;82.06;99738.06;5569126;32;33904;-69
2022/09/16 09:33:41;;;;;;;8.40;2.97;;;;;;;17.47;83.25;99717.47;5569542;32;34014;-68
2022/09/16 09:37:17;;;;;;;6.53;3.47;;;;;;;17.71;85.24;99729.91;5569206;32;34295;-68
2022/09/16 09:40:41;;;;;;;6.03;3.17;;;;;;;17.38;85.60;99730.34;5555869;32;34125;-68
2022/09/16 09:43:53;;;;;;;10.32;3.20;;;;;;;17.47;83.67;99719.31;5542836;32;32434;-68
2022/09/16 09:47:02;;;;;;;6.25;2.90;;;;;;;17.75;82.61;99731.09;5555098;32;33632;-68
2022/09/16 09:50:21;;;;;;;6.87;2.70;;;;;;;17.90;80.88;99725.28;5569065;32;34030;-67
2022/09/16 09:53:31;;;;;;;4.55;2.72;;;;;;;18.35;79.60;99732.78;5568926;32;34518;-68
2022/09/16 09:56:43;;;;;;;5.78;2.95;;;;;;;18.45;76.64;99727.63;5568842;32;34024;-69
2022/09/16 10:00:10;;;;;;;4.93;2.60;;;;;;;18.94;73.08;99724.41;5568682;32;33817;-68
2022/09/16 10:03:17;;;;;;;5.18;2.42;;;;;;;19.31;70.42;99724.06;5571049;32;33998;-69
2022/09/16 10:06:29;;;;;;;4.70;2.13;;;;;;;19.38;66.56;99719.34;5571384;32;35221;-68
2022/09/16 10:09:34;;;;;;;4.07;1.87;;;;;;;19.74;66.53;99705.50;5557517;32;32820;-69
2022/09/16 10:12:39;;;;;;;4.95;2.12;;;;;;;19.45;60.22;99698.53;5557536;32;35132;-67
2022/09/16 10:15:43;;;;;;;7.82;2.20;;;;;;;19.77;62.14;99694.25;5557225;32;32540;-67
2022/09/16 10:19:22;;;;;;;5.60;2.25;;;;;;;19.73;62.41;99708.44;5557024;32;32799;-69
2022/09/16 10:22:29;;;;;;;6.93;2.42;;;;;;;19.70;61.48;99715.12;5559259;32;34593;-68
2022/09/16 10:25:33;;;;;;;5.50;2.28;;;;;;;19.77;65.56;99710.41;5556854;32;32968;-69
2022/09/16 10:28:37;;;;;;;6.10;2.20;;;;;;;19.32;66.57;99710.38;5556952;32;34068;-69
2022/09/16 10:31:41;;;;;;;6.85;2.17;;;;;;;19.44;64.93;99697.72;5570731;32;34274;-68
2022/09/16 10:34:46;;;;;;;3.92;2.10;;;;;;;19.61;62.67;99703.13;5556328;32;33669;-69
2022/09/16 10:37:53;;;;;;;5.07;2.05;;;;;;;19.50;63.88;99702.16;5570587;32;34032;-69
2022/09/16 10:41:01;;;;;;;3.75;1.90;;;;;;;19.57;63.12;99696.59;5570557;32;34004;-68
2022/09/16 10:44:14;;;;;;;5.18;1.70;;;;;;;19.56;61.65;99696.84;5570705;32;33890;-68
2022/09/16 10:47:25;;;;;;;3.87;1.77;;;;;;;19.18;60.06;99698.28;5570777;32;34007;-67
2022/09/16 10:50:27;;;;;;;4.40;1.70;;;;;;;19.34;61.08;99702.06;5570696;32;34645;-68
2022/09/16 10:53:30;;;;;;;3.17;1.70;;;;;;;19.14;57.60;99704.37;5570760;32;34284;-67
2022/09/16 10:56:53;;;;;;;5.12;1.95;;;;;;;19.25;57.93;99704.34;5570621;32;34254;-68
2022/09/16 11:00:13;;;;;;;2.37;1.60;;;;;;;19.42;59.33;99704.34;5570156;32;35248;-68
2022/09/16 11:04:05;;;;;;;7.00;2.12;;;;;;;18.85;62.21;99703.53;5556564;32;32991;-67
2022/09/16 11:07:22;;;;;;;7.43;1.83;;;;;;;19.04;61.81;99708.50;5557336;32;34586;-68
2022/09/16 11:10:37;;;;;;;4.12;1.77;;;;;;;18.81;57.93;99702.38;5570820;32;33879;-68
2022/09/16 11:13:48;;;;;;;7.37;1.60;;;;;;;18.89;58.62;99713.56;5570677;32;34005;-68
2022/09/16 11:17:27;;;;;;;3.20;1.48;;;;;;;19.29;59.50;99710.03;5543465;32;33237;-68
2022/09/16 11:20:44;;;;;;;2.87;1.75;;;;;;;19.88;56.26;99706.00;5556886;32;33423;-68
2022/09/16 11:24:15;;;;;;;3.22;1.60;;;;;;;19.99;56.92;99699.72;5556978;32;34169;-68
2022/09/16 11:27:48;;;;;;;8.95;1.95;;;;;;;20.85;53.27;99708.22;5570476;32;34578;-68
2022/09/16 11:30:57;;;;;;;6.18;2.17;;;;;;;20.75;54.60;99707.03;5556411;32;33840;-67
2022/09/16 11:34:32;;;;;;;2.95;1.60;;;;;;;20.81;54.64;99692.56;5570800;32;33880;-68
2022/09/16 11:37:54;;;;;;;5.68;1.62;;;;;;;21.43;52.33;99688.69;5562985;32;33799;-69
2022/09/16 11:41:07;;;;;;;4.05;1.60;;;;;;;21.87;50.99;99678.53;5557523;32;32775;-68
2022/09/16 11:44:25;;;;;;;6.43;1.65;;;;;;;22.45;49.63;99689.22;5570353;32;33913;-68
2022/09/16 11:48:02;;;;;;;2.35;1.45;;;;;;;22.43;50.53;99685.12;5570311;32;34151;-69
2022/09/16 11:51:34;;;;;;;3.12;1.50;;;;;;;22.65;47.71;99676.88;5569449;32;33929;-68
2022/09/16 11:54:55;;;;;;;4.93;1.52;;;;;;;23.09;47.22;99671.94;5556536;32;32568;-68
2022/09/16 11:58:03;;;;;;;5.25;1.52;;;;;;;23.97;43.76;99661.72;5570829;32;33998;-68
2022/09/16 12:01:26;;;;;;;2.55;1.15;;;;;;;22.82;46.92;99661.28;5556069;32;33246;-68
2022/09/16 12:04:43;;;;;;;5.95;1.73;;;;;;;22.46;46.24;99658.41;5570058;32;34343;-68
2022/09/16 12:08:34;;;;;;;4.60;1.60;;;;;;;22.51;45.66;99660.34;5570430;32;33959;-68
2022/09/16 12:12:08;;;;;;;2.33;1.20;;;;;;;21.85;47.52;99656.38;5557297;32;33917;-69
2022/09/16 12:15:19;;;;;;;1.80;1.10;;;;;;;21.28;50.38;99648.06;5543195;32;32849;-69
2022/09/16 12:18:29;;;;;;;4.55;1.50;;;;;;;21.34;52.23;99642.47;5570216;32;34036;-69
2022/09/16 12:21:38;;;;;;;4.68;1.60;;;;;;;20.74;54.84;99632.63;5570074;32;34656;-68
2022/09/16 12:24:47;;;;;;;5.03;1.80;;;;;;;20.44;51.73;99645.72;5569489;32;34003;-68
2022/09/16 12:27:56;;;;;;;4.95;1.62;;;;;;;19.95;53.93;99642.84;5555927;31;33248;-69
2022/09/16 12:31:09;;;;;;;7.10;1.48;;;;;;;20.28;53.83;99633.09;5556184;32;32879;-68
2022/09/16 12:34:27;;;;;;;3.45;1.55;;;;;;;20.39;52.87;99632.19;5570126;32;34080;-69
2022/09/16 12:37:34;;;;;;;5.28;1.37;;;;;;;20.21;54.24;99627.87;5569862;32;34193;-69
2022/09/16 12:41:04;;;;;;;2.35;1.20;;;;;;;19.99;56.70;99620.84;5569933;32;34078;-69
2022/09/16 12:44:36;;;;;;;2.10;1.35;;;;;;;19.77;55.87;99620.75;5555866;32;33294;-68
2022/09/16 12:48:07;;;;;;;4.60;1.40;;;;;;;20.05;54.31;99617.12;5548401;32;33217;-67
2022/09/16 12:51:24;;;;;;;4.47;1.70;;;;;;;20.26;55.99;99611.78;5569517;32;34554;-68
2022/09/16 12:54:48;;;;;;;3.40;1.80;;;;;;;20.13;57.27;99611.34;5556277;32;32863;-68
2022/09/16 12:58:41;;;;;;;3.50;1.33;;;;;;;20.42;56.57;99606.63;5555866;32;32754;-68
2022/09/16 13:01:52;;;;;;;2.47;1.40;;;;;;;20.47;53.94;99606.69;5569761;32;33906;-68
2022/09/16 13:05:11;;;;;;;2.87;1.25;;;;;;;20.96;52.37;99608.31;5569288;32;34036;-68
2022/09/16 13:08:21;;;;;;;4.40;1.50;;;;;;;21.90;51.04;99605.09;5555887;32;32786;-67
2022/09/16 13:11:28;;;;;;;5.40;1.50;;;;;;;22.20;50.23;99596.37;5555295;32;34240;-68
2022/09/16 13:14:55;;;;;;;4.22;1.58;;;;;;;22.13;51.10;99598.50;5555527;32;33894;-68
2022/09/16 13:18:13;;;;;;;4.80;1.58;;;;;;;21.48;54.49;99597.78;5569564;32;33976;-67
2022/09/16 13:21:24;;;;;;;4.60;1.50;;;;;;;21.28;58.39;99591.41;5555686;32;34139;-65
2022/09/16 13:24:37;;;;;;;6.43;1.77;;;;;;;20.95;57.08;99592.41;5555394;32;32672;-65
2022/09/16 13:27:55;;;;;;;2.45;1.40;;;;;;;20.69;55.76;99591.31;5569295;32;34017;-67
2022/09/16 13:31:10;;;;;;;3.62;1.52;;;;;;;20.42;57.11;99602.06;5555477;32;32470;-67
2022/09/16 13:34:16;;;;;;;3.17;1.40;;;;;;;19.89;58.03;99594.59;5569533;32;34077;-68
2022/09/16 13:37:25;;;;;;;4.32;1.50;;;;;;;20.11;57.17;99595.41;5568131;32;34660;-68
2022/09/16 13:40:30;;;;;;;4.47;1.55;;;;;;;20.25;56.75;99595.88;5568599;32;34715;-67
2022/09/16 13:43:35;;;;;;;3.80;1.35;;;;;;;20.48;55.44;99587.56;5568415;32;34313;-67
2022/09/16 13:46:38;;;;;;;5.25;1.48;;;;;;;20.65;54.72;99582.94;5568704;32;33851;-68
2022/09/16 13:49:55;;;;;;;2.17;1.10;;;;;;;20.52;55.45;99588.72;5569250;32;33899;-67
2022/09/16 13:53:17;;;;;;;3.55;1.73;;;;;;;20.38;56.63;99579.38;5554829;32;32863;-68
2022/09/16 13:56:34;;;;;;;2.58;1.48;;;;;;;19.61;58.48;99573.13;5568319;32;34051;-66
2022/09/16 14:00:13;;;;;;;5.22;1.60;;;;;;;19.70;59.17;99564.44;5555167;32;33087;-67
2022/09/16 14:03:52;;;;;;;5.20;1.70;;;;;;;19.95;58.72;99558.56;5568895;32;34120;-67
2022/09/16 14:07:19;;;;;;;4.60;1.42;;;;;;;20.10;60.59;99561.47;5567986;32;34051;-67
2022/09/16 14:10:46;;;;;;;6.53;1.80;;;;;;;20.36;58.62;99559.94;5568124;32;34752;-68
2022/09/16 14:14:00;;;;;;;6.00;1.80;;;;;;;20.22;58.60;99556.78;5568312;32;34423;-68
2022/09/16 14:17:26;;;;;;;4.83;1.67;;;;;;;20.17;59.07;99556.72;5554380;32;33375;-68
2022/09/16 14:20:33;;;;;;;7.80;1.80;;;;;;;20.20;59.55;99550.84;5553933;32;32666;-68
2022/09/16 14:23:35;;;;;;;7.32;1.70;;;;;;;20.12;59.97;99545.06;5567725;32;34765;-67
2022/09/16 14:26:49;;;;;;;4.20;1.55;;;;;;;19.70;61.58;99550.16;5567387;32;34651;-66
2022/09/16 14:30:05;;;;;;;4.47;1.75;;;;;;;19.29;61.53;99543.31;5567607;32;34180;-67
2022/09/16 14:33:09;;;;;;;9.70;1.55;;;;;;;18.99;61.67;99543.59;5554488;32;33255;-68
2022/09/16 14:36:20;;;;;;;5.15;1.70;;;;;;;18.89;61.58;99538.03;5540792;32;32638;-68
2022/09/16 14:39:25;;;;;;;3.75;1.65;;;;;;;18.66;62.65;99550.56;5567643;32;35120;-68
2022/09/16 14:42:29;;;;;;;4.60;1.80;;;;;;;18.55;63.87;99547.91;5567554;32;35236;-67
2022/09/16 14:45:34;;;;;;;7.25;1.80;;;;;;;18.52;64.59;99548.34;5553227;32;34380;-67
2022/09/16 14:48:39;;;;;;;4.32;1.52;;;;;;;18.46;65.39;99535.87;5569362;32;34122;-67
2022/09/16 14:51:46;;;;;;;7.97;1.90;;;;;;;18.33;66.21;99534.31;5570538;32;34286;-66